Time;durP1;ratioP1;P1;durP2;ratioP2;P2;SDS_P1;SDS_P2;PMS_P1;PMS_P2;Temp;Humidity;BMP_temperature;BMP_pressure;BME280_temperature;BME280_humidity;BME280_pressure;Samples;Min_cycle;Max_cycle;Signal;HPM_P1;HPM_P2
2023/12/11 00:01:43;;;;;;;15.93;4.00;;;;;;;;;;5015514;28;20029;-72
2023/12/11 00:04:29;;;;;;;9.40;4.45;;;;;;;;;;5023283;28;20025;-72
2023/12/11 00:07:14;;;;;;;14.38;3.60;;;;;;;;;;5018178;28;20026;-72
2023/12/11 00:10:00;;;;;;;12.18;3.33;;;;;;;;;;4999177;28;20073;-73
2023/12/11 00:12:46;;;;;;;8.40;4.03;;;;;;;;;;4992460;28;20554;-72
2023/12/11 00:15:31;;;;;;;11.20;3.92;;;;;;;;;;5004322;28;20089;-73
2023/12/11 00:18:17;;;;;;;11.27;4.25;;;;;;;;;;4996351;28;20038;-72
2023/12/11 00:21:03;;;;;;;10.52;3.95;;;;;;;;;;4981061;28;20399;-72
2023/12/11 00:23:48;;;;;;;10.68;3.40;;;;;;;;;;4981068;28;20034;-72
2023/12/11 00:26:34;;;;;;;14.98;4.68;;;;;;;;;;4996615;28;20394;-72
2023/12/11 00:29:20;;;;;;;13.50;4.20;;;;;;;;;;4996045;28;20022;-72
2023/12/11 00:32:06;;;;;;;19.88;4.63;;;;;;;;;;4995851;28;20026;-72
2023/12/11 00:34:51;;;;;;;10.07;3.75;;;;;;;;;;4999248;28;20026;-72
2023/12/11 00:37:37;;;;;;;8.38;3.97;;;;;;;;;;5015209;28;20425;-72
2023/12/11 00:40:23;;;;;;;11.20;3.53;;;;;;;;;;5014797;28;20554;-73
2023/12/11 00:43:09;;;;;;;12.25;3.50;;;;;;;;;;5010275;28;20072;-72
2023/12/11 00:45:55;;;;;;;16.15;3.47;;;;;;;;;;5014808;28;20075;-72
2023/12/11 00:48:40;;;;;;;15.15;4.40;;;;;;;;;;5000896;28;20554;-72
2023/12/11 00:51:26;;;;;;;11.95;3.90;;;;;;;;;;4999035;28;20105;-72
2023/12/11 00:54:12;;;;;;;15.38;4.55;;;;;;;;;;5014919;28;20022;-72
2023/12/11 00:56:57;;;;;;;16.20;5.20;;;;;;;;;;5014500;28;20498;-72
2023/12/11 00:59:43;;;;;;;9.95;3.60;;;;;;;;;;5100047;23;20044;-68
2023/12/11 01:02:29;;;;;;;16.95;5.20;;;;;;;;;;5035603;28;20026;-67
2023/12/11 01:05:14;;;;;;;16.80;4.90;;;;;;;;;;5028233;28;20060;-67
2023/12/11 01:08:00;;;;;;;12.63;4.93;;;;;;;;;;5008118;28;20022;-67
2023/12/11 01:10:46;;;;;;;13.32;4.05;;;;;;;;;;4995728;28;20029;-67
2023/12/11 01:13:31;;;;;;;16.65;4.38;;;;;;;;;;5012355;28;20096;-67
2023/12/11 01:16:17;;;;;;;8.15;3.72;;;;;;;;;;5011731;28;20022;-67
2023/12/11 01:19:03;;;;;;;9.40;4.05;;;;;;;;;;5015536;28;20407;-67
2023/12/11 01:21:48;;;;;;;9.32;4.50;;;;;;;;;;5008625;28;20118;-68
2023/12/11 01:24:34;;;;;;;14.52;4.00;;;;;;;;;;4994714;28;20026;-67
2023/12/11 01:27:20;;;;;;;14.68;5.47;;;;;;;;;;4994793;28;20566;-67
2023/12/11 01:30:06;;;;;;;12.00;4.45;;;;;;;;;;4995677;28;20082;-67
2023/12/11 01:32:52;;;;;;;13.35;5.32;;;;;;;;;;4993908;28;20030;-67
2023/12/11 01:35:37;;;;;;;18.75;6.10;;;;;;;;;;5009918;28;20017;-67
2023/12/11 01:38:23;;;;;;;15.05;4.70;;;;;;;;;;4994858;28;20514;-67
2023/12/11 01:41:09;;;;;;;12.48;4.40;;;;;;;;;;4994775;28;20026;-67
2023/12/11 01:43:55;;;;;;;10.90;5.07;;;;;;;;;;5013544;28;20052;-67
2023/12/11 01:46:41;;;;;;;17.67;6.03;;;;;;;;;;5000083;28;20105;-67
2023/12/11 01:49:27;;;;;;;10.63;3.97;;;;;;;;;;4994383;28;20431;-67
2023/12/11 01:52:12;;;;;;;15.82;5.70;;;;;;;;;;5009867;28;20033;-67
2023/12/11 01:54:58;;;;;;;17.80;6.28;;;;;;;;;;4981581;28;20026;-67
2023/12/11 01:57:44;;;;;;;14.95;5.20;;;;;;;;;;4995924;28;20026;-67
2023/12/11 02:00:29;;;;;;;12.07;4.75;;;;;;;;;;5011425;28;20061;-67
2023/12/11 02:03:15;;;;;;;12.10;4.80;;;;;;;;;;5000354;28;20057;-67
2023/12/11 02:06:01;;;;;;;22.42;5.43;;;;;;;;;;4994565;28;20486;-67
2023/12/11 02:08:46;;;;;;;10.57;5.20;;;;;;;;;;4997358;28;20026;-67
2023/12/11 02:11:32;;;;;;;17.45;5.90;;;;;;;;;;4980733;28;20104;-67
2023/12/11 02:14:18;;;;;;;11.88;5.53;;;;;;;;;;4994399;28;20022;-67
2023/12/11 02:17:03;;;;;;;13.82;5.40;;;;;;;;;;4980341;28;20029;-67
2023/12/11 02:19:49;;;;;;;13.90;5.63;;;;;;;;;;4995100;28;20084;-67
2023/12/11 02:22:35;;;;;;;15.02;5.55;;;;;;;;;;5004140;28;20495;-67
2023/12/11 02:25:20;;;;;;;13.27;5.90;;;;;;;;;;4998545;28;20030;-67
2023/12/11 02:28:06;;;;;;;13.80;5.68;;;;;;;;;;5007071;28;20025;-67
2023/12/11 02:30:52;;;;;;;10.82;5.20;;;;;;;;;;4995425;28;20500;-67
2023/12/11 02:33:38;;;;;;;12.63;7.15;;;;;;;;;;5002126;28;20163;-67
2023/12/11 02:36:23;;;;;;;14.13;5.18;;;;;;;;;;5013903;28;20104;-68
2023/12/11 02:39:09;;;;;;;16.83;5.78;;;;;;;;;;5013772;28;20041;-67
2023/12/11 02:41:55;;;;;;;12.55;5.38;;;;;;;;;;5013143;28;20030;-67
2023/12/11 02:48:22;;;;;;;13.43;5.20;;;;;;;;;;5012775;28;20450;-67
2023/12/11 02:51:08;;;;;;;13.23;5.07;;;;;;;;;;5001951;28;20022;-67
2023/12/11 02:53:54;;;;;;;12.05;5.53;;;;;;;;;;4978542;28;20389;-67
2023/12/11 02:56:42;;;;;;;13.98;4.97;;;;;;;;;;4993884;28;20484;-67
2023/12/11 02:59:28;;;;;;;12.20;4.70;;;;;;;;;;5008952;28;20487;-67
2023/12/11 03:02:13;;;;;;;10.70;4.55;;;;;;;;;;5008810;28;20099;-68
2023/12/11 03:04:59;;;;;;;14.90;4.93;;;;;;;;;;4997487;28;20026;-67
2023/12/11 03:07:45;;;;;;;11.07;4.45;;;;;;;;;;5008460;28;20026;-67
2023/12/11 03:10:33;;;;;;;8.85;4.28;;;;;;;;;;5010033;28;20018;-67
2023/12/11 03:13:19;;;;;;;17.08;5.10;;;;;;;;;;5012947;28;20022;-67
2023/12/11 03:16:04;;;;;;;12.85;4.88;;;;;;;;;;5012035;28;20029;-67
2023/12/11 03:18:50;;;;;;;10.43;4.32;;;;;;;;;;5012189;28;20025;-67
2023/12/11 03:21:36;;;;;;;8.82;3.65;;;;;;;;;;5011644;28;20451;-67
2023/12/11 03:24:21;;;;;;;9.23;4.07;;;;;;;;;;5011410;28;20058;-67
2023/12/11 03:27:07;;;;;;;11.18;4.97;;;;;;;;;;5008059;28;20028;-67
2023/12/11 03:29:53;;;;;;;11.48;4.72;;;;;;;;;;5012073;28;20024;-67
2023/12/11 03:32:38;;;;;;;15.77;3.90;;;;;;;;;;5011126;28;20037;-67
2023/12/11 03:35:24;;;;;;;11.23;3.83;;;;;;;;;;5012887;28;20505;-67
2023/12/11 03:38:10;;;;;;;7.68;4.03;;;;;;;;;;5013179;28;20061;-67
2023/12/11 03:40:55;;;;;;;10.02;3.83;;;;;;;;;;5012682;28;20022;-67
2023/12/11 03:43:41;;;;;;;12.25;4.22;;;;;;;;;;5012837;28;20034;-67
2023/12/11 03:46:27;;;;;;;14.10;4.68;;;;;;;;;;5011898;28;20569;-67
2023/12/11 03:49:16;;;;;;;8.70;3.10;;;;;;;;;;4993359;28;20065;-67
2023/12/11 03:52:02;;;;;;;8.40;4.03;;;;;;;;;;4993336;28;20026;-67
2023/12/11 03:54:48;;;;;;;10.50;4.22;;;;;;;;;;5010987;28;20026;-67
2023/12/11 03:57:33;;;;;;;6.25;3.53;;;;;;;;;;5014527;28;20030;-67
2023/12/11 04:00:19;;;;;;;10.75;3.85;;;;;;;;;;5013919;28;20025;-67
2023/12/11 04:03:05;;;;;;;7.43;3.95;;;;;;;;;;5016280;28;20108;-67
2023/12/11 04:05:50;;;;;;;10.50;3.80;;;;;;;;;;4996472;28;20030;-67
2023/12/11 04:08:42;;;;;;;10.93;4.50;;;;;;;;;;4996845;28;20484;-67
2023/12/11 04:11:28;;;;;;;10.93;4.22;;;;;;;;;;4996229;28;20065;-67
2023/12/11 04:14:13;;;;;;;10.13;5.00;;;;;;;;;;4997709;28;20499;-67
2023/12/11 04:17:00;;;;;;;13.07;4.90;;;;;;;;;;5011132;28;20117;-67
2023/12/11 04:19:46;;;;;;;12.55;5.53;;;;;;;;;;5014018;28;20029;-67
2023/12/11 04:22:32;;;;;;;14.38;4.55;;;;;;;;;;5005695;28;20408;-67
2023/12/11 04:25:17;;;;;;;9.75;4.97;;;;;;;;;;4995853;28;20027;-67
2023/12/11 04:28:03;;;;;;;14.52;6.50;;;;;;;;;;5008402;28;20034;-67
2023/12/11 04:30:49;;;;;;;15.43;6.55;;;;;;;;;;5016321;28;20495;-67
2023/12/11 04:33:37;;;;;;;14.70;4.93;;;;;;;;;;5016301;28;20026;-67
2023/12/11 04:36:22;;;;;;;16.88;5.68;;;;;;;;;;4995402;28;20463;-67
2023/12/11 04:39:08;;;;;;;19.05;5.88;;;;;;;;;;4996460;28;20105;-67
2023/12/11 04:41:54;;;;;;;16.45;5.80;;;;;;;;;;5007540;28;20116;-67
2023/12/11 04:44:39;;;;;;;17.27;6.15;;;;;;;;;;5014347;28;20586;-67
2023/12/11 04:47:25;;;;;;;10.52;5.15;;;;;;;;;;5005012;28;20048;-67
2023/12/11 04:50:11;;;;;;;16.13;5.40;;;;;;;;;;4995552;28;20027;-67
2023/12/11 04:52:56;;;;;;;10.82;5.35;;;;;;;;;;4999259;28;20075;-67
2023/12/11 04:55:42;;;;;;;14.32;5.53;;;;;;;;;;5014685;28;20427;-67
2023/12/11 04:58:27;;;;;;;15.15;6.28;;;;;;;;;;5013637;28;20056;-67
2023/12/11 05:01:13;;;;;;;10.88;5.28;;;;;;;;;;5015229;28;20021;-67
2023/12/11 05:03:59;;;;;;;13.48;5.55;;;;;;;;;;5015935;28;20026;-67
2023/12/11 05:06:44;;;;;;;16.60;6.18;;;;;;;;;;5001035;28;20035;-67
2023/12/11 05:09:30;;;;;;;19.73;6.80;;;;;;;;;;4994214;28;20018;-67
2023/12/11 05:12:16;;;;;;;20.27;6.40;;;;;;;;;;5006464;28;20479;-67
2023/12/11 05:15:01;;;;;;;16.75;6.22;;;;;;;;;;4994876;28;20034;-67
2023/12/11 05:17:47;;;;;;;20.63;7.57;;;;;;;;;;4997646;28;20033;-67
2023/12/11 05:20:33;;;;;;;17.13;5.68;;;;;;;;;;5013654;28;20049;-67
2023/12/11 05:23:18;;;;;;;15.07;6.18;;;;;;;;;;5014906;28;20033;-67
2023/12/11 05:26:04;;;;;;;14.13;6.78;;;;;;;;;;5013072;28;20025;-67
2023/12/11 05:28:50;;;;;;;19.60;8.57;;;;;;;;;;5013243;28;20021;-67
2023/12/11 05:31:35;;;;;;;19.60;5.95;;;;;;;;;;4996062;28;20652;-67
2023/12/11 05:34:21;;;;;;;16.95;6.90;;;;;;;;;;5001697;28;20029;-67
2023/12/11 05:37:07;;;;;;;14.55;7.85;;;;;;;;;;5016465;28;20030;-67
2023/12/11 05:39:52;;;;;;;16.13;6.13;;;;;;;;;;5014734;28;20030;-67
2023/12/11 05:42:38;;;;;;;17.42;7.07;;;;;;;;;;5007899;28;20034;-67
2023/12/11 05:45:23;;;;;;;18.08;7.28;;;;;;;;;;5014422;28;20022;-67
2023/12/11 05:48:09;;;;;;;18.80;6.55;;;;;;;;;;4999485;28;20041;-67
2023/12/11 05:50:55;;;;;;;22.42;8.65;;;;;;;;;;4994610;28;20487;-67
2023/12/11 05:53:40;;;;;;;18.30;6.75;;;;;;;;;;5009173;28;20113;-67
2023/12/11 05:56:26;;;;;;;25.23;7.43;;;;;;;;;;5012487;28;20575;-67
2023/12/11 05:59:12;;;;;;;25.02;8.63;;;;;;;;;;5012724;28;20025;-67
2023/12/11 06:01:57;;;;;;;20.23;7.50;;;;;;;;;;5014993;28;20391;-67
2023/12/11 06:04:43;;;;;;;21.15;8.20;;;;;;;;;;5012476;28;20026;-67
2023/12/11 06:07:29;;;;;;;25.33;7.82;;;;;;;;;;5014185;28;20026;-67
2023/12/11 06:10:14;;;;;;;20.27;7.30;;;;;;;;;;4996596;28;20026;-68
2023/12/11 06:13:00;;;;;;;25.05;8.23;;;;;;;;;;4995484;28;20403;-67
2023/12/11 06:15:46;;;;;;;22.90;9.40;;;;;;;;;;4999346;28;20034;-67
2023/12/11 06:18:31;;;;;;;24.80;9.43;;;;;;;;;;4994216;28;20061;-67
2023/12/11 06:21:20;;;;;;;26.10;9.20;;;;;;;;;;5001254;28;20060;-67
2023/12/11 06:24:07;;;;;;;24.95;9.75;;;;;;;;;;4999672;28;20088;-67
2023/12/11 06:26:53;;;;;;;29.17;9.32;;;;;;;;;;4998772;28;20041;-67
2023/12/11 06:29:39;;;;;;;30.40;8.40;;;;;;;;;;5013322;28;20021;-67
2023/12/11 06:32:25;;;;;;;23.55;8.10;;;;;;;;;;5013997;28;20026;-67
2023/12/11 06:35:11;;;;;;;26.15;9.00;;;;;;;;;;5012658;28;20026;-67
2023/12/11 06:37:56;;;;;;;30.52;10.35;;;;;;;;;;5013181;28;20056;-67
2023/12/11 06:40:42;;;;;;;23.52;8.85;;;;;;;;;;5011273;28;20402;-67
2023/12/11 06:43:30;;;;;;;28.52;9.75;;;;;;;;;;5012434;28;20089;-67
2023/12/11 06:46:15;;;;;;;32.47;10.60;;;;;;;;;;5013379;28;20084;-67
2023/12/11 06:49:01;;;;;;;22.20;8.40;;;;;;;;;;5013481;28;20026;-67
2023/12/11 06:51:48;;;;;;;30.60;8.88;;;;;;;;;;5013035;28;20029;-67
2023/12/11 06:54:34;;;;;;;28.15;10.48;;;;;;;;;;4992802;28;20065;-67
2023/12/11 06:57:19;;;;;;;35.25;10.38;;;;;;;;;;4993616;28;20105;-67
2023/12/11 07:00:06;;;;;;;31.48;10.57;;;;;;;;;;5006958;28;20148;-67
2023/12/11 07:02:52;;;;;;;28.05;9.77;;;;;;;;;;4998463;28;20037;-67
2023/12/11 07:05:40;;;;;;;30.33;9.68;;;;;;;;;;5008656;28;20049;-67
2023/12/11 07:08:27;;;;;;;30.05;9.00;;;;;;;;;;5013181;28;20080;-67
2023/12/11 07:11:12;;;;;;;39.55;11.60;;;;;;;;;;5007835;28;20116;-67
2023/12/11 07:13:58;;;;;;;32.20;10.32;;;;;;;;;;4987199;28;20029;-67
2023/12/11 07:16:44;;;;;;;32.50;11.32;;;;;;;;;;5005281;28;20029;-67
2023/12/11 07:19:29;;;;;;;31.75;10.77;;;;;;;;;;5007242;28;20026;-67
2023/12/11 07:22:15;;;;;;;34.22;11.75;;;;;;;;;;4996973;28;20030;-67
2023/12/11 07:25:01;;;;;;;31.27;9.52;;;;;;;;;;5002960;28;20027;-67
2023/12/11 07:27:46;;;;;;;39.72;10.38;;;;;;;;;;4993648;28;20084;-67
2023/12/11 07:30:32;;;;;;;38.80;10.05;;;;;;;;;;4995187;28;20029;-67
2023/12/11 07:33:17;;;;;;;32.65;9.57;;;;;;;;;;4992591;28;20027;-67
2023/12/11 07:36:04;;;;;;;38.28;12.35;;;;;;;;;;4999410;28;20033;-67
2023/12/11 07:38:50;;;;;;;41.28;10.60;;;;;;;;;;5012224;28;20112;-67
2023/12/11 07:41:35;;;;;;;54.58;11.30;;;;;;;;;;5008177;28;20026;-67
2023/12/11 07:44:21;;;;;;;44.60;10.50;;;;;;;;;;5004870;28;20084;-67
2023/12/11 07:47:07;;;;;;;29.55;9.60;;;;;;;;;;5012643;28;20026;-67
2023/12/11 07:49:52;;;;;;;41.70;11.63;;;;;;;;;;5007673;28;20032;-67
2023/12/11 07:52:38;;;;;;;37.25;9.75;;;;;;;;;;5012085;28;20022;-67
2023/12/11 07:55:23;;;;;;;41.35;10.63;;;;;;;;;;5007035;28;20030;-67
2023/12/11 07:58:10;;;;;;;27.77;9.55;;;;;;;;;;4993800;28;20018;-67
2023/12/11 08:00:56;;;;;;;31.80;9.82;;;;;;;;;;4996564;28;20025;-67
2023/12/11 08:03:41;;;;;;;40.47;10.13;;;;;;;;;;4991819;28;20026;-67
2023/12/11 08:06:27;;;;;;;33.65;10.00;;;;;;;;;;4994964;28;20440;-67
2023/12/11 08:09:14;;;;;;;24.02;8.68;;;;;;;;;;4991886;28;20117;-67
2023/12/11 08:12:00;;;;;;;30.58;8.90;;;;;;;;;;4978924;28;20037;-67
2023/12/11 08:14:45;;;;;;;23.08;8.25;;;;;;;;;;4998740;28;20057;-67
2023/12/11 08:17:31;;;;;;;30.30;9.25;;;;;;;;;;4993377;28;20022;-67
2023/12/11 08:20:17;;;;;;;28.38;8.13;;;;;;;;;;4994635;28;20023;-67
2023/12/11 08:23:03;;;;;;;34.38;9.00;;;;;;;;;;4991086;28;20038;-67
2023/12/11 08:25:49;;;;;;;28.45;8.73;;;;;;;;;;5003658;28;20024;-67
2023/12/11 08:28:40;;;;;;;24.17;9.27;;;;;;;;;;5111256;27;20336;-68
2023/12/11 08:31:26;;;;;;;35.33;8.85;;;;;;;;;;5109124;28;20417;-68
2023/12/11 08:34:11;;;;;;;36.60;10.10;;;;;;;;;;5089945;28;20478;-68
2023/12/11 08:36:57;;;;;;;30.05;8.88;;;;;;;;;;5090385;28;20078;-68
2023/12/11 08:39:43;;;;;;;37.35;11.73;;;;;;;;;;5101719;28;20024;-68
2023/12/11 08:42:28;;;;;;;33.50;10.23;;;;;;;;;;5103741;28;20020;-67
2023/12/11 08:45:14;;;;;;;27.33;9.85;;;;;;;;;;5108733;28;20377;-68
2023/12/11 08:48:00;;;;;;;32.20;10.77;;;;;;;;;;5109158;28;20020;-68
2023/12/11 08:50:47;;;;;;;32.35;9.90;;;;;;;;;;5109025;28;20027;-67
2023/12/11 08:53:33;;;;;;;29.38;10.27;;;;;;;;;;5108893;28;20023;-68
2023/12/11 08:56:23;;;;;;;39.53;10.07;;;;;;;;;;5108742;28;20489;-68
2023/12/11 08:59:09;;;;;;;30.27;11.18;;;;;;;;;;5111149;27;20070;-68
2023/12/11 09:01:55;;;;;;;32.75;9.77;;;;;;;;;;5095500;28;20120;-68
2023/12/11 09:04:40;;;;;;;29.25;9.15;;;;;;;;;;5108657;28;20016;-68
2023/12/11 09:07:26;;;;;;;34.25;10.07;;;;;;;;;;5116943;28;20012;-68
2023/12/11 09:10:12;;;;;;;43.33;11.32;;;;;;;;;;5130591;28;20023;-68
2023/12/11 09:12:59;;;;;;;35.40;10.60;;;;;;;;;;5130755;28;20157;-68
2023/12/11 09:15:44;;;;;;;29.73;9.88;;;;;;;;;;5129224;28;20022;-68
2023/12/11 09:18:30;;;;;;;37.42;9.57;;;;;;;;;;5129748;28;20440;-68
2023/12/11 09:21:16;;;;;;;26.90;9.70;;;;;;;;;;5100593;28;20063;-68
2023/12/11 09:24:03;;;;;;;32.85;9.68;;;;;;;;;;5109458;28;20106;-68
2023/12/11 09:26:49;;;;;;;37.78;10.32;;;;;;;;;;5113739;28;20027;-68
2023/12/11 09:29:35;;;;;;;35.85;10.27;;;;;;;;;;5115535;28;20157;-68
2023/12/11 09:32:20;;;;;;;35.38;10.73;;;;;;;;;;5129050;28;20055;-68
2023/12/11 09:35:07;;;;;;;27.10;10.65;;;;;;;;;;5129528;28;20051;-67
2023/12/11 09:37:53;;;;;;;34.63;10.38;;;;;;;;;;5111263;28;20055;-68
2023/12/11 09:40:38;;;;;;;33.97;9.48;;;;;;;;;;5100239;28;20381;-67
2023/12/11 09:43:25;;;;;;;36.38;9.18;;;;;;;;;;5116558;28;20027;-68
2023/12/11 09:46:16;;;;;;;35.63;10.55;;;;;;;;;;5101444;28;20023;-68
2023/12/11 09:49:02;;;;;;;35.35;9.07;;;;;;;;;;5099578;28;20485;-67
2023/12/11 09:51:48;;;;;;;37.53;11.73;;;;;;;;;;5095124;28;20108;-68
2023/12/11 09:54:35;;;;;;;35.80;10.77;;;;;;;;;;5096656;28;20028;-68
2023/12/11 09:57:21;;;;;;;30.88;9.27;;;;;;;;;;5094485;28;20481;-68
2023/12/11 10:00:08;;;;;;;31.13;9.88;;;;;;;;;;5108593;28;20020;-69
2023/12/11 10:02:54;;;;;;;26.55;9.35;;;;;;;;;;5114226;28;20084;-69
2023/12/11 10:05:39;;;;;;;37.70;10.93;;;;;;;;;;5112947;28;20084;-68
2023/12/11 10:08:26;;;;;;;47.15;12.65;;;;;;;;;;5112793;28;20023;-69
2023/12/11 10:11:13;;;;;;;39.97;11.60;;;;;;;;;;5090728;28;20032;-69
2023/12/11 10:14:14;;;;;;;39.55;11.70;;;;;;;;;;5114155;28;20030;-69
2023/12/11 10:17:15;;;;;;;38.03;10.90;;;;;;;;;;5115622;28;20080;-68
2023/12/11 10:20:01;;;;;;;35.58;9.93;;;;;;;;;;5099231;28;20497;-69
2023/12/11 10:22:46;;;;;;;47.97;10.95;;;;;;;;;;5099616;28;20031;-68
2023/12/11 10:25:32;;;;;;;36.50;9.63;;;;;;;;;;5094519;28;20031;-68
2023/12/11 10:28:20;;;;;;;35.42;10.75;;;;;;;;;;5112715;28;20028;-69
2023/12/11 10:31:06;;;;;;;49.60;11.45;;;;;;;;;;5115387;28;20051;-68
2023/12/11 10:33:52;;;;;;;46.10;12.68;;;;;;;;;;5115513;28;20034;-68
2023/12/11 10:36:50;;;;;;;33.70;9.77;;;;;;;;;;5114331;28;20023;-68
2023/12/11 10:39:36;;;;;;;30.88;10.10;;;;;;;;;;5099553;28;20031;-69
2023/12/11 10:42:23;;;;;;;35.25;11.13;;;;;;;;;;5098688;28;20463;-70
2023/12/11 10:45:09;;;;;;;33.08;10.35;;;;;;;;;;5113466;28;20036;-68
2023/12/11 10:47:55;;;;;;;35.20;10.40;;;;;;;;;;5109257;28;20024;-68
2023/12/11 10:50:41;;;;;;;28.05;8.27;;;;;;;;;;5093121;28;20158;-68
2023/12/11 10:53:26;;;;;;;33.15;9.63;;;;;;;;;;5101437;28;20167;-68
2023/12/11 10:56:12;;;;;;;31.05;9.82;;;;;;;;;;5112576;28;20027;-69
2023/12/11 10:58:58;;;;;;;35.50;10.68;;;;;;;;;;5099689;28;20016;-68
2023/12/11 11:01:45;;;;;;;33.50;9.40;;;;;;;;;;5114419;28;20480;-68
2023/12/11 11:04:33;;;;;;;29.77;9.68;;;;;;;;;;5105438;28;20032;-68
2023/12/11 11:07:29;;;;;;;31.90;9.65;;;;;;;;;;5093183;28;20089;-68
2023/12/11 11:10:20;;;;;;;31.33;9.60;;;;;;;;;;5079114;28;20051;-68
2023/12/11 11:13:17;;;;;;;30.08;9.40;;;;;;;;;;5090611;28;20042;-68
2023/12/11 11:16:03;;;;;;;28.48;8.35;;;;;;;;;;5092057;28;20027;-68
2023/12/11 11:19:06;;;;;;;27.10;8.68;;;;;;;;;;5112959;28;20020;-68
2023/12/11 11:22:03;;;;;;;31.25;9.07;;;;;;;;;;5090233;28;20402;-68
2023/12/11 11:24:49;;;;;;;31.67;9.05;;;;;;;;;;5110566;28;20015;-68
2023/12/11 11:27:42;;;;;;;25.60;8.77;;;;;;;;;;5095931;28;20020;-68
2023/12/11 11:30:44;;;;;;;28.77;8.57;;;;;;;;;;5102050;28;20024;-68
2023/12/11 11:33:46;;;;;;;28.58;7.25;;;;;;;;;;5098909;28;20031;-68
2023/12/11 11:36:48;;;;;;;28.73;9.05;;;;;;;;;;5094675;28;20451;-67
2023/12/11 11:39:59;;;;;;;23.83;6.70;;;;;;;;;;5113849;28;20019;-68
2023/12/11 11:42:44;;;;;;;18.13;7.30;;;;;;;;;;5113352;28;20020;-68
2023/12/11 11:45:30;;;;;;;19.95;7.15;;;;;;;;;;5113544;28;20058;-68
2023/12/11 11:48:15;;;;;;;32.47;8.13;;;;;;;;;;5113131;28;20137;-68
2023/12/11 11:51:01;;;;;;;18.58;6.85;;;;;;;;;;5113834;28;20023;-68
2023/12/11 11:53:53;;;;;;;22.08;6.75;;;;;;;;;;5108684;28;20024;-68
2023/12/11 11:56:44;;;;;;;17.00;6.15;;;;;;;;;;5096309;28;20419;-68
2023/12/11 11:59:31;;;;;;;19.17;6.93;;;;;;;;;;5091450;28;20436;-68
2023/12/11 12:02:23;;;;;;;19.92;6.40;;;;;;;;;;5092955;28;20024;-68
2023/12/11 12:05:10;;;;;;;19.45;6.38;;;;;;;;;;5093739;28;20102;-68
2023/12/11 12:07:56;;;;;;;18.48;5.70;;;;;;;;;;5092594;28;20400;-68
2023/12/11 12:10:41;;;;;;;21.25;7.03;;;;;;;;;;5077481;28;20059;-68
2023/12/11 12:13:36;;;;;;;21.02;6.68;;;;;;;;;;5089101;28;20397;-68
2023/12/11 12:16:28;;;;;;;18.83;6.35;;;;;;;;;;5092157;28;20031;-68
2023/12/11 12:19:15;;;;;;;17.33;6.47;;;;;;;;;;5104152;28;20024;-68
2023/12/11 12:22:04;;;;;;;23.08;6.80;;;;;;;;;;5097142;28;20027;-68
2023/12/11 12:24:51;;;;;;;32.08;8.05;;;;;;;;;;5094107;28;20086;-68
2023/12/11 12:27:37;;;;;;;21.20;7.32;;;;;;;;;;5092234;28;20144;-68
2023/12/11 12:30:22;;;;;;;19.90;7.07;;;;;;;;;;5107787;28;20063;-68
2023/12/11 12:33:09;;;;;;;19.10;6.35;;;;;;;;;;5097693;28;20031;-68
2023/12/11 12:35:55;;;;;;;27.88;7.97;;;;;;;;;;5103223;28;20381;-68
2023/12/11 12:38:41;;;;;;;21.55;8.35;;;;;;;;;;5112841;28;20054;-68
2023/12/11 12:41:28;;;;;;;24.33;8.45;;;;;;;;;;5095523;28;20020;-68
2023/12/11 12:44:14;;;;;;;26.60;8.35;;;;;;;;;;5111349;28;20157;-68
2023/12/11 12:47:03;;;;;;;27.40;8.43;;;;;;;;;;5107882;28;20177;-68
2023/12/11 12:49:49;;;;;;;28.08;7.97;;;;;;;;;;5093173;28;20020;-68
2023/12/11 12:52:36;;;;;;;20.75;8.25;;;;;;;;;;5091748;28;20086;-68
2023/12/11 12:55:31;;;;;;;24.75;7.53;;;;;;;;;;5112064;28;20028;-68
2023/12/11 12:58:23;;;;;;;25.05;8.52;;;;;;;;;;5111324;28;20026;-68
2023/12/11 13:01:09;;;;;;;24.42;8.00;;;;;;;;;;5077911;28;20028;-68
2023/12/11 13:04:00;;;;;;;18.70;7.32;;;;;;;;;;5092236;28;20024;-68
2023/12/11 13:06:46;;;;;;;19.35;7.88;;;;;;;;;;5110793;28;20054;-68
2023/12/11 13:09:32;;;;;;;14.40;5.70;;;;;;;;;;5111187;28;20222;-67
2023/12/11 13:12:18;;;;;;;15.13;6.03;;;;;;;;;;5095503;28;20039;-68
2023/12/11 13:15:06;;;;;;;13.40;5.10;;;;;;;;;;5080444;28;20020;-68
2023/12/11 13:17:53;;;;;;;10.55;3.78;;;;;;;;;;5094902;28;20016;-69
2023/12/11 13:20:39;;;;;;;7.20;3.47;;;;;;;;;;5094599;28;20024;-68
2023/12/11 13:23:24;;;;;;;6.90;3.58;;;;;;;;;;5099848;28;20051;-68
2023/12/11 13:26:10;;;;;;;11.48;4.55;;;;;;;;;;5095642;28;20439;-69
2023/12/11 13:28:56;;;;;;;11.73;4.63;;;;;;;;;;5116195;28;20141;-68
2023/12/11 13:31:41;;;;;;;10.68;4.55;;;;;;;;;;5114636;28;20024;-68
2023/12/11 13:34:27;;;;;;;15.27;4.30;;;;;;;;;;5116030;28;20493;-68
2023/12/11 13:37:13;;;;;;;16.33;5.00;;;;;;;;;;5116251;28;20023;-68
2023/12/11 13:39:58;;;;;;;20.23;7.22;;;;;;;;;;5112156;28;20020;-68
2023/12/11 13:42:44;;;;;;;15.40;6.70;;;;;;;;;;5113594;28;20565;-68
2023/12/11 13:45:30;;;;;;;15.13;6.88;;;;;;;;;;5114492;28;20028;-68
2023/12/11 13:48:16;;;;;;;20.75;7.93;;;;;;;;;;5097467;28;20396;-68
2023/12/11 13:51:01;;;;;;;14.38;6.30;;;;;;;;;;5098791;28;20026;-68
2023/12/11 13:53:47;;;;;;;15.50;6.30;;;;;;;;;;5094409;28;20059;-68
2023/12/11 13:56:33;;;;;;;14.77;6.10;;;;;;;;;;5095028;28;20107;-67
2023/12/11 13:59:18;;;;;;;13.32;4.80;;;;;;;;;;5095283;28;20036;-68
2023/12/11 14:02:05;;;;;;;15.50;6.00;;;;;;;;;;5094884;28;20027;-68
2023/12/11 14:04:51;;;;;;;15.85;6.57;;;;;;;;;;5113379;28;20034;-68
2023/12/11 14:07:36;;;;;;;13.10;5.85;;;;;;;;;;5115200;28;20025;-68
2023/12/11 14:10:23;;;;;;;14.00;6.88;;;;;;;;;;5080023;28;20116;-68
2023/12/11 14:13:12;;;;;;;12.63;6.90;;;;;;;;;;5094333;28;20020;-68
2023/12/11 14:15:58;;;;;;;16.00;7.22;;;;;;;;;;5095563;28;20020;-68
2023/12/11 14:18:44;;;;;;;16.80;6.47;;;;;;;;;;5094499;28;20024;-67
2023/12/11 14:21:29;;;;;;;15.43;6.45;;;;;;;;;;5109618;28;20058;-68
2023/12/11 14:24:16;;;;;;;16.20;6.18;;;;;;;;;;5114100;28;20032;-68
2023/12/11 14:27:01;;;;;;;16.58;7.25;;;;;;;;;;5104980;28;20028;-68
2023/12/11 14:29:47;;;;;;;14.05;6.65;;;;;;;;;;5094577;28;20016;-67
2023/12/11 14:32:35;;;;;;;16.73;6.72;;;;;;;;;;5103695;28;20035;-68
2023/12/11 14:35:20;;;;;;;14.25;6.72;;;;;;;;;;5094707;28;20444;-68
2023/12/11 14:38:06;;;;;;;15.55;5.95;;;;;;;;;;5108665;28;20103;-68
2023/12/11 14:40:51;;;;;;;14.25;6.00;;;;;;;;;;5114610;28;20023;-68
2023/12/11 14:43:37;;;;;;;13.00;5.82;;;;;;;;;;5095296;28;20118;-68
2023/12/11 14:46:23;;;;;;;11.85;5.40;;;;;;;;;;5093977;28;20053;-68
2023/12/11 14:49:08;;;;;;;15.38;6.40;;;;;;;;;;5111167;28;20480;-68
2023/12/11 14:51:54;;;;;;;17.23;6.80;;;;;;;;;;5114404;28;20024;-68
2023/12/11 14:54:40;;;;;;;11.95;5.85;;;;;;;;;;5100195;28;20020;-68
2023/12/11 14:57:25;;;;;;;10.30;4.95;;;;;;;;;;5100671;28;20016;-68
2023/12/11 15:00:11;;;;;;;9.98;5.53;;;;;;;;;;5114197;28;20031;-69
2023/12/11 15:02:57;;;;;;;12.43;5.57;;;;;;;;;;5114862;28;20012;-69
2023/12/11 15:05:43;;;;;;;11.95;4.93;;;;;;;;;;5114531;28;20035;-69
2023/12/11 15:08:28;;;;;;;14.27;5.43;;;;;;;;;;5113765;28;20107;-69
2023/12/11 15:11:15;;;;;;;14.25;5.15;;;;;;;;;;5112393;28;20016;-69
2023/12/11 15:14:04;;;;;;;16.73;5.22;;;;;;;;;;5114147;28;20051;-69
2023/12/11 15:16:50;;;;;;;10.45;4.63;;;;;;;;;;5095545;28;20023;-69
2023/12/11 15:19:35;;;;;;;10.95;4.78;;;;;;;;;;5093503;28;20114;-69
2023/12/11 15:22:21;;;;;;;12.77;4.70;;;;;;;;;;5093463;28;20016;-69
2023/12/11 15:25:09;;;;;;;13.45;5.65;;;;;;;;;;5093547;28;20448;-69
2023/12/11 15:27:55;;;;;;;14.43;5.47;;;;;;;;;;5092391;28;20024;-69
2023/12/11 15:30:41;;;;;;;14.05;5.60;;;;;;;;;;5112065;28;20134;-69
2023/12/11 15:33:26;;;;;;;14.07;5.38;;;;;;;;;;5112458;28;20552;-69
2023/12/11 15:36:15;;;;;;;15.18;5.38;;;;;;;;;;5107531;28;20435;-69
2023/12/11 15:39:01;;;;;;;20.58;5.85;;;;;;;;;;5101056;28;20023;-70
2023/12/11 15:41:47;;;;;;;15.68;6.50;;;;;;;;;;5111495;28;20078;-71
2023/12/11 15:44:32;;;;;;;19.52;7.10;;;;;;;;;;5093775;28;20493;-71
2023/12/11 15:47:18;;;;;;;17.15;6.63;;;;;;;;;;5101546;28;20401;-71
2023/12/11 15:50:06;;;;;;;16.90;6.25;;;;;;;;;;5097389;28;20049;-71
2023/12/11 15:52:52;;;;;;;20.55;7.22;;;;;;;;;;5110308;28;20054;-71
2023/12/11 15:55:38;;;;;;;22.23;6.78;;;;;;;;;;5112693;28;20031;-71
2023/12/11 15:58:23;;;;;;;21.92;6.43;;;;;;;;;;5094875;28;20016;-73
2023/12/11 16:01:10;;;;;;;24.52;7.82;;;;;;;;;;5092834;28;20024;-72
2023/12/11 16:03:55;;;;;;;16.63;6.20;;;;;;;;;;5089832;28;20019;-72
2023/12/11 16:06:41;;;;;;;22.95;7.50;;;;;;;;;;5094874;28;20032;-72
2023/12/11 16:09:26;;;;;;;23.65;7.80;;;;;;;;;;5092580;28;20028;-72
2023/12/11 16:12:12;;;;;;;23.20;7.65;;;;;;;;;;5092361;28;20039;-72
2023/12/11 16:14:58;;;;;;;19.48;7.03;;;;;;;;;;5105302;28;20157;-72
2023/12/11 16:17:43;;;;;;;18.58;7.32;;;;;;;;;;5113444;28;20142;-72
2023/12/11 16:20:29;;;;;;;20.77;8.23;;;;;;;;;;5112905;28;20476;-72
2023/12/11 16:23:15;;;;;;;19.90;8.25;;;;;;;;;;5114165;28;20424;-72
2023/12/11 16:26:01;;;;;;;20.65;8.10;;;;;;;;;;5093216;28;20028;-72